Time;durP1;ratioP1;P1;durP2;ratioP2;P2;SDS_P1;SDS_P2;PMS_P1;PMS_P2;Temp;Humidity;BMP_temperature;BMP_pressure;BME280_temperature;BME280_humidity;BME280_pressure;Samples;Min_cycle;Max_cycle;Signal;HPM_P1;HPM_P2
2021/12/30 00:00:59;;;;;;;17.70;8.77;;;7.50;94.40;;;;;;4981140;28;20042;-69
2021/12/30 00:03:25;;;;;;;18.58;9.75;;;7.60;94.50;;;;;;4999102;28;20033;-68
2021/12/30 00:05:52;;;;;;;17.92;9.90;;;7.60;94.60;;;;;;4998298;28;20036;-68
2021/12/30 00:08:19;;;;;;;15.20;9.32;;;7.60;94.70;;;;;;4998401;28;20038;-69
2021/12/30 00:10:45;;;;;;;17.10;9.90;;;7.70;94.60;;;;;;4993106;28;20562;-69
2021/12/30 00:13:11;;;;;;;18.77;9.65;;;7.70;94.60;;;;;;4997864;28;20136;-68
2021/12/30 00:15:38;;;;;;;15.23;8.95;;;7.70;94.50;;;;;;4998753;28;20065;-69
2021/12/30 00:18:05;;;;;;;17.83;9.10;;;7.70;94.50;;;;;;4998680;28;20270;-69
2021/12/30 00:20:33;;;;;;;16.88;9.40;;;7.70;94.50;;;;;;4997699;28;20044;-69
2021/12/30 00:23:04;;;;;;;19.13;9.65;;;7.70;94.50;;;;;;4997943;28;20026;-69
2021/12/30 00:25:37;;;;;;;18.50;10.43;;;7.70;94.50;;;;;;4998397;28;20278;-68
2021/12/30 00:28:26;;;;;;;17.77;9.57;;;7.70;94.60;;;;;;4998295;28;20034;-68
2021/12/30 00:30:53;;;;;;;16.73;9.18;;;7.70;95.20;;;;;;4980009;28;20131;-69
2021/12/30 00:33:20;;;;;;;17.45;9.27;;;7.80;94.70;;;;;;4999044;28;20057;-68
2021/12/30 00:35:46;;;;;;;18.38;8.98;;;7.80;94.70;;;;;;4982213;28;20081;-69
2021/12/30 00:38:14;;;;;;;16.80;9.73;;;7.80;94.60;;;;;;5000589;28;20046;-68
2021/12/30 00:40:40;;;;;;;15.98;9.38;;;7.80;94.70;;;;;;4996772;28;20583;-69
2021/12/30 00:43:07;;;;;;;16.63;9.90;;;7.80;94.60;;;;;;5001464;28;20036;-69
2021/12/30 00:45:34;;;;;;;13.65;8.32;;;7.80;94.60;;;;;;4998717;28;20030;-73
2021/12/30 00:48:01;;;;;;;12.43;8.48;;;7.80;94.50;;;;;;4999299;28;20637;-69
2021/12/30 00:50:27;;;;;;;14.82;9.38;;;7.90;94.40;;;;;;5004702;28;20078;-69
2021/12/30 00:52:54;;;;;;;17.13;9.65;;;7.90;94.60;;;;;;5000155;28;20079;-69
2021/12/30 00:55:20;;;;;;;17.92;9.60;;;7.90;94.20;;;;;;4999311;28;20034;-69
2021/12/30 00:57:45;;;;;;;17.13;9.93;;;7.90;94.30;;;;;;5001464;28;20040;-69
2021/12/30 01:00:16;;;;;;;15.60;8.38;;;7.90;94.20;;;;;;4997850;28;20096;-69
2021/12/30 01:02:42;;;;;;;16.38;9.45;;;7.90;94.20;;;;;;4996950;28;20038;-73
2021/12/30 01:05:09;;;;;;;16.25;9.32;;;7.90;94.20;;;;;;4981404;28;20060;-68
2021/12/30 01:07:35;;;;;;;16.40;8.63;;;7.90;94.10;;;;;;4979641;28;20042;-71
2021/12/30 01:10:02;;;;;;;14.00;9.02;;;7.90;93.90;;;;;;4998556;28;20121;-73
2021/12/30 01:12:28;;;;;;;17.30;9.23;;;7.90;93.90;;;;;;5006022;28;20670;-69
2021/12/30 01:14:54;;;;;;;17.40;10.52;;;7.90;94.00;;;;;;4999290;28;20087;-68
2021/12/30 01:17:27;;;;;;;15.75;10.00;;;7.90;94.20;;;;;;4983191;28;20032;-68
2021/12/30 01:19:53;;;;;;;16.70;10.07;;;7.90;94.10;;;;;;4996163;28;20091;-69
2021/12/30 01:22:25;;;;;;;15.02;9.63;;;7.90;94.30;;;;;;4998955;28;20030;-68
2021/12/30 01:24:51;;;;;;;16.83;10.20;;;7.90;94.30;;;;;;4998945;28;20041;-69
2021/12/30 01:27:19;;;;;;;17.50;10.20;;;7.80;94.30;;;;;;4999422;28;20062;-73
2021/12/30 01:29:45;;;;;;;20.38;10.65;;;7.80;94.50;;;;;;4998367;28;20112;-73
2021/12/30 01:32:11;;;;;;;20.50;9.43;;;7.80;94.80;;;;;;4998600;28;20389;-73
2021/12/30 01:34:37;;;;;;;18.92;9.48;;;7.80;94.80;;;;;;4998726;28;20022;-69
2021/12/30 01:37:04;;;;;;;17.77;10.57;;;7.80;94.90;;;;;;4999362;28;20108;-69
2021/12/30 01:39:33;;;;;;;18.63;10.07;;;7.80;94.90;;;;;;4981359;28;20096;-69
2021/12/30 01:41:59;;;;;;;20.50;10.30;;;7.90;94.80;;;;;;4994554;28;20037;-69
2021/12/30 01:44:28;;;;;;;16.10;9.73;;;7.90;94.70;;;;;;4997878;28;20044;-69
2021/12/30 01:46:54;;;;;;;16.58;9.52;;;7.90;94.60;;;;;;4998955;28;20033;-69
2021/12/30 01:49:21;;;;;;;14.98;9.18;;;7.90;94.60;;;;;;4997974;28;20038;-69
2021/12/30 01:51:48;;;;;;;17.15;9.55;;;7.80;94.60;;;;;;4998453;28;20074;-68
2021/12/30 01:54:15;;;;;;;17.58;9.32;;;7.90;94.70;;;;;;4998225;28;20018;-73
2021/12/30 01:56:41;;;;;;;16.85;9.98;;;7.90;94.60;;;;;;4998404;28;20171;-73
2021/12/30 01:59:07;;;;;;;17.08;9.23;;;7.90;94.70;;;;;;4998171;28;20159;-73
2021/12/30 02:01:34;;;;;;;16.13;9.70;;;7.80;94.50;;;;;;4998229;28;20026;-73
2021/12/30 02:04:00;;;;;;;15.82;9.13;;;7.80;94.70;;;;;;5000330;28;20022;-68
2021/12/30 02:06:27;;;;;;;17.52;9.38;;;7.70;94.60;;;;;;5001074;28;20746;-69
2021/12/30 02:08:53;;;;;;;18.08;9.65;;;7.80;95.00;;;;;;5001773;28;20065;-69
2021/12/30 02:11:20;;;;;;;15.65;9.30;;;7.70;95.00;;;;;;5005585;28;20136;-68
2021/12/30 02:13:49;;;;;;;19.73;9.40;;;7.70;95.20;;;;;;4984436;28;20050;-69
2021/12/30 02:16:17;;;;;;;16.55;8.70;;;7.70;95.10;;;;;;5000595;28;20034;-69
2021/12/30 02:18:43;;;;;;;16.83;9.23;;;7.70;95.10;;;;;;5001575;28;20038;-73
2021/12/30 02:21:09;;;;;;;12.90;7.88;;;7.70;95.00;;;;;;5001360;28;20025;-73
2021/12/30 02:23:37;;;;;;;13.35;7.57;;;7.80;94.80;;;;;;4983175;28;20076;-73
2021/12/30 02:26:09;;;;;;;15.00;8.85;;;7.70;94.70;;;;;;4986749;28;20033;-73
2021/12/30 02:28:37;;;;;;;15.27;7.57;;;7.80;95.10;;;;;;4981296;28;20113;-73
2021/12/30 02:31:16;;;;;;;13.88;7.60;;;7.80;95.00;;;;;;4985356;28;20038;-73
2021/12/30 02:33:43;;;;;;;13.73;7.70;;;7.80;95.10;;;;;;4993109;28;20109;-73
2021/12/30 02:36:10;;;;;;;11.75;7.00;;;7.80;95.20;;;;;;5001258;28;20022;-73
2021/12/30 02:38:36;;;;;;;12.70;7.03;;;7.80;95.20;;;;;;5001242;28;20037;-73
2021/12/30 02:41:03;;;;;;;11.88;6.20;;;7.90;95.40;;;;;;5000716;28;20030;-73
2021/12/30 02:43:31;;;;;;;12.45;6.47;;;7.80;95.30;;;;;;4999892;28;20543;-69
2021/12/30 02:45:59;;;;;;;8.45;5.60;;;7.80;95.30;;;;;;5001460;28;20057;-69
2021/12/30 02:48:29;;;;;;;9.82;5.18;;;7.80;95.20;;;;;;5000419;28;20088;-68
2021/12/30 02:50:58;;;;;;;9.05;5.68;;;7.90;95.10;;;;;;5000652;28;20619;-69
2021/12/30 02:53:24;;;;;;;8.10;5.05;;;7.90;95.10;;;;;;5002587;28;20029;-73
2021/12/30 02:55:53;;;;;;;7.70;4.55;;;7.90;94.90;;;;;;5000299;28;20543;-73
2021/12/30 02:58:20;;;;;;;6.43;4.40;;;8.00;94.90;;;;;;4998719;28;20030;-73
2021/12/30 03:00:49;;;;;;;9.93;5.18;;;8.00;94.70;;;;;;5000324;28;20066;-73
2021/12/30 03:03:22;;;;;;;7.20;4.57;;;8.10;94.70;;;;;;4999487;28;20135;-73
2021/12/30 03:05:49;;;;;;;8.85;5.35;;;8.10;94.70;;;;;;5000018;28;20041;-73
2021/12/30 03:08:16;;;;;;;7.80;4.47;;;8.10;94.90;;;;;;5000218;28;20048;-73
2021/12/30 03:10:42;;;;;;;6.13;3.92;;;8.10;94.90;;;;;;4999480;28;20032;-73
2021/12/30 03:13:10;;;;;;;6.88;4.35;;;8.10;94.80;;;;;;5000607;28;20139;-73
2021/12/30 03:15:38;;;;;;;8.30;4.25;;;8.10;94.80;;;;;;4999954;28;20127;-73
2021/12/30 03:18:04;;;;;;;7.03;4.57;;;8.10;94.80;;;;;;4983981;28;20112;-73
2021/12/30 03:20:37;;;;;;;5.93;4.18;;;8.10;94.80;;;;;;4999648;28;20513;-73
2021/12/30 03:23:04;;;;;;;5.32;3.85;;;8.20;94.80;;;;;;4999184;28;20069;-73
2021/12/30 03:25:30;;;;;;;4.88;3.92;;;8.20;94.90;;;;;;4999707;28;20037;-73
2021/12/30 03:27:56;;;;;;;7.63;5.05;;;8.20;94.90;;;;;;4983114;28;20048;-69
2021/12/30 03:30:22;;;;;;;4.95;3.60;;;8.20;94.90;;;;;;4999126;28;20040;-69
2021/12/30 03:32:51;;;;;;;5.57;4.75;;;8.30;94.90;;;;;;5000165;28;20034;-72
2021/12/30 03:35:17;;;;;;;6.55;4.47;;;8.30;94.90;;;;;;5006611;28;20046;-73
2021/12/30 03:37:43;;;;;;;8.32;4.95;;;8.40;95.00;;;;;;5001652;28;20037;-73
2021/12/30 03:40:13;;;;;;;7.78;5.10;;;8.40;95.00;;;;;;4986358;28;20030;-73
2021/12/30 03:42:39;;;;;;;5.95;4.13;;;8.40;95.00;;;;;;5000869;28;20148;-73
2021/12/30 03:45:07;;;;;;;8.18;5.68;;;8.40;95.00;;;;;;5000447;28;20036;-73
2021/12/30 03:47:37;;;;;;;9.35;5.70;;;8.50;95.00;;;;;;4997213;28;20112;-73
2021/12/30 03:50:08;;;;;;;9.18;5.68;;;8.50;95.00;;;;;;5002452;28;20048;-73
2021/12/30 03:52:34;;;;;;;9.50;5.80;;;8.50;95.10;;;;;;5000815;28;20034;-73
2021/12/30 03:55:00;;;;;;;10.32;6.45;;;8.50;95.20;;;;;;4999732;28;20056;-73
2021/12/30 03:57:26;;;;;;;15.07;7.13;;;8.60;95.00;;;;;;5000817;28;20038;-73
2021/12/30 03:59:51;;;;;;;10.13;6.70;;;8.60;95.00;;;;;;5001033;28;20029;-73
2021/12/30 04:02:17;;;;;;;14.40;7.88;;;8.60;95.00;;;;;;5001054;28;20034;-73
2021/12/30 04:04:43;;;;;;;16.40;8.05;;;8.70;95.30;;;;;;5002087;28;20120;-73
2021/12/30 04:07:09;;;;;;;16.90;8.27;;;8.70;95.10;;;;;;5005418;28;20065;-69
2021/12/30 04:09:36;;;;;;;14.32;7.53;;;8.70;95.20;;;;;;5004208;28;20076;-72
2021/12/30 04:12:03;;;;;;;19.90;9.48;;;8.80;95.40;;;;;;5002467;28;20080;-69
2021/12/30 04:14:29;;;;;;;18.92;9.85;;;8.80;95.30;;;;;;5007074;28;20103;-68
2021/12/30 04:16:55;;;;;;;17.52;8.88;;;8.80;95.40;;;;;;4995333;28;20022;-69
2021/12/30 04:19:21;;;;;;;19.80;9.95;;;8.90;95.60;;;;;;5000075;28;20113;-73
2021/12/30 04:21:46;;;;;;;24.42;10.57;;;8.90;95.50;;;;;;5000118;28;20041;-69
2021/12/30 04:24:13;;;;;;;16.60;8.82;;;8.90;95.60;;;;;;4999262;28;20531;-72
2021/12/30 04:26:38;;;;;;;20.58;10.38;;;9.00;95.90;;;;;;4999205;28;20040;-68
2021/12/30 04:29:04;;;;;;;21.90;10.45;;;9.00;95.70;;;;;;4999507;28;20699;-69
2021/12/30 04:31:31;;;;;;;22.77;11.82;;;9.00;95.60;;;;;;4981932;28;20450;-73
2021/12/30 04:33:58;;;;;;;21.02;10.48;;;9.00;95.70;;;;;;4983889;28;20847;-73
2021/12/30 04:36:24;;;;;;;20.20;10.82;;;9.10;95.70;;;;;;4999877;28;20029;-68
2021/12/30 04:38:50;;;;;;;21.25;11.00;;;9.10;95.60;;;;;;4997996;28;20029;-68
2021/12/30 04:41:16;;;;;;;20.58;10.40;;;9.20;95.70;;;;;;5003197;28;20037;-68
2021/12/30 04:43:42;;;;;;;19.33;9.93;;;9.20;95.60;;;;;;4999165;28;20029;-68
2021/12/30 04:46:08;;;;;;;22.90;10.65;;;9.20;95.50;;;;;;4999285;28;20150;-68
2021/12/30 04:48:33;;;;;;;22.42;9.18;;;9.20;95.40;;;;;;4998962;28;20200;-68
2021/12/30 04:50:59;;;;;;;23.77;10.73;;;9.30;95.30;;;;;;4999197;28;20481;-68
2021/12/30 04:53:25;;;;;;;17.25;10.00;;;9.30;95.40;;;;;;4998712;28;20029;-73
2021/12/30 04:55:51;;;;;;;17.70;10.00;;;9.30;95.30;;;;;;4999598;28;20513;-72
2021/12/30 04:58:17;;;;;;;21.92;9.52;;;9.30;95.20;;;;;;4999288;28;20022;-72
2021/12/30 05:00:44;;;;;;;24.80;11.20;;;9.30;95.30;;;;;;4999370;28;20084;-68
2021/12/30 05:05:46;;;;;;;19.25;10.27;;;9.30;95.40;;;;;;4999538;28;20502;-67
2021/12/30 05:08:13;;;;;;;15.30;9.32;;;9.30;95.50;;;;;;4998388;28;20091;-69
2021/12/30 05:10:39;;;;;;;21.20;10.18;;;9.40;95.30;;;;;;4998167;28;20725;-68
2021/12/30 05:13:06;;;;;;;18.25;10.45;;;9.40;95.20;;;;;;4999454;28;20036;-68
2021/12/30 05:15:32;;;;;;;18.80;9.25;;;9.40;95.10;;;;;;4999295;28;20030;-70
2021/12/30 05:17:58;;;;;;;15.82;10.00;;;9.40;95.20;;;;;;4999768;28;20030;-68
2021/12/30 05:20:24;;;;;;;19.30;10.25;;;9.40;95.10;;;;;;5001171;28;20046;-68
2021/12/30 05:22:50;;;;;;;20.13;10.23;;;9.40;95.20;;;;;;4986237;28;20043;-68
2021/12/30 05:25:18;;;;;;;20.42;9.65;;;9.40;95.30;;;;;;5000738;28;20041;-74
2021/12/30 05:27:44;;;;;;;18.10;9.55;;;9.40;95.20;;;;;;5001333;28;20124;-73
2021/12/30 05:30:12;;;;;;;15.02;8.75;;;9.40;95.20;;;;;;4999085;28;20052;-73
2021/12/30 05:32:38;;;;;;;17.08;8.98;;;9.30;95.10;;;;;;4999986;28;20403;-73
2021/12/30 05:35:06;;;;;;;14.25;8.07;;;9.30;95.10;;;;;;4999053;28;20058;-73
2021/12/30 05:37:32;;;;;;;15.18;8.30;;;9.20;95.20;;;;;;4999799;28;20041;-73
2021/12/30 05:39:58;;;;;;;21.30;10.27;;;9.20;95.20;;;;;;4998904;28;20021;-72
2021/12/30 05:42:24;;;;;;;16.98;9.35;;;9.20;95.20;;;;;;5003136;28;20038;-73
2021/12/30 05:44:51;;;;;;;23.15;11.88;;;9.20;95.30;;;;;;4990183;28;20208;-72
2021/12/30 05:47:17;;;;;;;20.75;9.63;;;9.20;95.40;;;;;;5003411;28;20112;-73
2021/12/30 05:49:43;;;;;;;19.55;9.77;;;9.20;95.50;;;;;;5002984;28;20121;-72
2021/12/30 05:52:08;;;;;;;18.88;9.95;;;9.20;95.50;;;;;;5002074;28;20041;-72
2021/12/30 05:54:34;;;;;;;19.08;9.73;;;9.20;95.70;;;;;;4987417;28;20037;-73
2021/12/30 05:57:00;;;;;;;19.50;9.98;;;9.20;95.60;;;;;;5002280;28;20018;-68
2021/12/30 05:59:25;;;;;;;22.70;9.70;;;9.10;95.60;;;;;;5001643;28;20034;-68
2021/12/30 06:01:51;;;;;;;21.80;8.73;;;9.10;95.60;;;;;;5002107;28;20029;-68
2021/12/30 06:04:17;;;;;;;18.15;8.25;;;9.10;95.50;;;;;;5001310;28;20030;-68
2021/12/30 06:06:42;;;;;;;17.98;8.88;;;9.00;95.50;;;;;;5001583;28;20033;-68
2021/12/30 06:09:08;;;;;;;16.58;8.45;;;9.00;95.50;;;;;;5001613;28;20041;-67
2021/12/30 06:11:34;;;;;;;15.30;7.57;;;8.90;95.50;;;;;;5002311;28;20771;-69
2021/12/30 06:14:00;;;;;;;16.80;7.95;;;8.90;95.50;;;;;;5002759;28;20038;-69
2021/12/30 06:16:25;;;;;;;13.70;6.97;;;8.80;95.40;;;;;;4991963;28;20095;-73
2021/12/30 06:18:51;;;;;;;13.30;7.18;;;8.70;95.40;;;;;;5002113;28;20030;-74
2021/12/30 06:21:17;;;;;;;12.68;6.95;;;8.70;95.40;;;;;;5002206;28;20042;-67
2021/12/30 06:23:43;;;;;;;14.57;6.93;;;8.60;95.40;;;;;;4999758;28;20068;-69
2021/12/30 06:26:08;;;;;;;12.10;6.72;;;8.50;95.50;;;;;;5001881;28;20092;-67
2021/12/30 06:28:34;;;;;;;15.10;6.97;;;8.50;95.50;;;;;;5002412;28;20033;-67
2021/12/30 06:31:00;;;;;;;13.57;6.95;;;8.50;95.50;;;;;;5001501;28;20121;-69
2021/12/30 06:33:25;;;;;;;13.70;6.97;;;8.50;95.40;;;;;;5001837;28;20030;-67
2021/12/30 06:35:51;;;;;;;11.63;6.75;;;8.50;95.30;;;;;;5002416;28;20548;-72
2021/12/30 06:38:17;;;;;;;10.07;6.15;;;8.50;95.10;;;;;;5002258;28;20034;-69
2021/12/30 06:40:43;;;;;;;11.38;6.05;;;8.40;95.10;;;;;;4997552;28;20042;-69
2021/12/30 06:43:09;;;;;;;10.73;6.20;;;8.40;95.20;;;;;;5001260;28;20033;-69
2021/12/30 06:45:35;;;;;;;14.15;7.10;;;8.30;95.30;;;;;;5001683;28;20033;-69
2021/12/30 06:48:01;;;;;;;15.40;7.25;;;8.30;95.30;;;;;;5002546;28;20033;-69
2021/12/30 06:50:31;;;;;;;13.25;6.50;;;8.30;95.50;;;;;;5001241;28;20268;-69
2021/12/30 06:52:57;;;;;;;11.32;6.70;;;8.30;95.70;;;;;;5003927;28;20837;-69
2021/12/30 06:55:23;;;;;;;15.05;6.90;;;8.40;95.80;;;;;;5001996;28;20068;-69
2021/12/30 06:57:49;;;;;;;16.10;7.80;;;8.50;95.90;;;;;;5002432;28;20030;-67
2021/12/30 07:00:15;;;;;;;17.50;8.40;;;8.50;95.90;;;;;;5001579;28;20033;-67
2021/12/30 07:02:44;;;;;;;15.02;7.13;;;8.50;95.90;;;;;;5005554;28;20510;-67
2021/12/30 07:05:11;;;;;;;18.83;7.45;;;8.60;96.00;;;;;;5001630;28;20048;-67
2021/12/30 07:07:37;;;;;;;17.20;7.28;;;8.60;96.00;;;;;;5001235;28;20099;-68
2021/12/30 07:10:05;;;;;;;13.68;7.10;;;8.60;96.00;;;;;;5001696;28;20125;-73
2021/12/30 07:12:31;;;;;;;20.33;7.93;;;8.60;96.00;;;;;;5001613;28;20136;-73
2021/12/30 07:14:57;;;;;;;10.77;6.15;;;8.60;95.90;;;;;;5000653;28;20022;-72
2021/12/30 07:17:23;;;;;;;13.25;7.28;;;8.60;95.90;;;;;;5000988;28;20030;-72
2021/12/30 07:19:49;;;;;;;13.27;6.63;;;8.70;95.90;;;;;;4985188;28;20037;-73
2021/12/30 07:22:15;;;;;;;13.50;7.00;;;8.70;95.90;;;;;;4998908;28;20026;-72
2021/12/30 07:24:40;;;;;;;17.63;6.75;;;8.70;95.80;;;;;;5001746;28;20045;-73
2021/12/30 07:27:06;;;;;;;14.98;7.15;;;8.80;95.90;;;;;;5002054;28;20127;-72
2021/12/30 07:29:32;;;;;;;12.50;6.47;;;8.80;95.90;;;;;;5005274;28;20512;-73
2021/12/30 07:31:58;;;;;;;11.63;6.25;;;8.90;95.90;;;;;;5006912;28;20030;-72
2021/12/30 07:34:23;;;;;;;9.55;6.03;;;9.00;95.80;;;;;;5003544;28;20034;-72
2021/12/30 07:36:49;;;;;;;11.40;6.32;;;9.00;95.60;;;;;;5003377;28;20065;-73
2021/12/30 07:39:15;;;;;;;13.07;6.43;;;9.00;95.30;;;;;;5004250;28;20129;-72
2021/12/30 07:41:40;;;;;;;14.50;7.13;;;9.10;95.40;;;;;;4983534;28;20037;-72
2021/12/30 07:44:06;;;;;;;10.30;6.13;;;9.10;95.30;;;;;;5000389;28;20038;-68
2021/12/30 07:46:32;;;;;;;11.65;6.60;;;9.20;95.30;;;;;;4998803;28;20033;-68
2021/12/30 07:48:58;;;;;;;11.18;5.78;;;9.20;95.20;;;;;;5000475;28;20145;-68
2021/12/30 07:51:24;;;;;;;17.40;6.55;;;9.20;95.20;;;;;;5000711;28;20045;-68
2021/12/30 07:53:49;;;;;;;11.07;5.78;;;9.20;95.20;;;;;;4999550;28;20030;-68
2021/12/30 07:56:15;;;;;;;10.10;5.25;;;9.20;95.00;;;;;;4982417;28;20496;-67
2021/12/30 07:58:41;;;;;;;11.00;5.60;;;9.20;94.90;;;;;;4999666;28;20769;-68
2021/12/30 08:01:06;;;;;;;9.88;5.90;;;9.20;95.00;;;;;;5001803;28;20029;-68
2021/12/30 08:03:32;;;;;;;9.32;5.78;;;9.10;95.00;;;;;;4998543;28;20061;-68
2021/12/30 08:05:58;;;;;;;12.52;6.07;;;9.10;95.00;;;;;;5000115;28;20892;-68
2021/12/30 08:08:24;;;;;;;12.50;5.35;;;9.10;95.10;;;;;;4990835;28;20069;-68
2021/12/30 08:10:50;;;;;;;14.43;7.07;;;9.00;95.10;;;;;;5004061;28;20033;-68
2021/12/30 08:13:15;;;;;;;22.40;14.05;;;9.10;95.20;;;;;;5002631;28;20034;-68
2021/12/30 08:15:42;;;;;;;22.25;9.02;;;9.10;95.30;;;;;;5000755;28;20033;-68
2021/12/30 08:18:09;;;;;;;19.27;8.63;;;9.20;95.60;;;;;;4985779;28;20040;-68
2021/12/30 08:20:35;;;;;;;23.98;9.65;;;9.20;95.80;;;;;;5000193;28;20104;-72
2021/12/30 08:23:00;;;;;;;25.58;9.18;;;9.30;95.80;;;;;;4999810;28;20382;-68
2021/12/30 08:25:29;;;;;;;20.90;8.00;;;9.40;96.30;;;;;;5000472;28;20585;-68
2021/12/30 08:27:55;;;;;;;17.77;6.88;;;9.40;96.10;;;;;;4999662;28;20037;-73
2021/12/30 08:30:22;;;;;;;17.75;6.85;;;9.40;95.90;;;;;;5000522;28;20476;-68
2021/12/30 08:32:48;;;;;;;13.52;6.45;;;9.50;95.80;;;;;;4996327;28;20053;-68
2021/12/30 08:35:16;;;;;;;14.60;7.32;;;9.50;95.60;;;;;;4999639;28;20652;-68
2021/12/30 08:37:42;;;;;;;14.25;7.22;;;9.50;95.60;;;;;;5000150;28;20113;-68
2021/12/30 08:40:10;;;;;;;13.48;6.75;;;9.50;95.50;;;;;;5000038;28;20115;-68
2021/12/30 08:42:36;;;;;;;19.95;8.13;;;9.50;95.40;;;;;;4999579;28;20030;-68
2021/12/30 08:45:04;;;;;;;12.70;7.18;;;9.60;95.40;;;;;;5000039;28;20040;-72
2021/12/30 08:47:33;;;;;;;21.80;8.30;;;9.60;95.40;;;;;;4999938;28;20476;-72
2021/12/30 08:49:59;;;;;;;21.63;8.60;;;9.70;95.30;;;;;;4999374;28;20034;-73
2021/12/30 08:52:26;;;;;;;17.15;7.50;;;9.80;95.80;;;;;;4999685;28;20052;-72
2021/12/30 08:54:54;;;;;;;17.30;7.60;;;9.90;95.80;;;;;;4998298;28;20022;-72
2021/12/30 08:57:21;;;;;;;16.02;7.05;;;9.90;95.60;;;;;;5003078;28;20030;-72
2021/12/30 08:59:47;;;;;;;16.80;8.02;;;9.90;95.50;;;;;;4982437;28;20037;-72
2021/12/30 09:02:12;;;;;;;14.98;7.95;;;9.90;95.30;;;;;;4999831;28;20099;-72
2021/12/30 09:04:42;;;;;;;17.13;7.90;;;9.90;95.30;;;;;;4999605;28;20061;-72
2021/12/30 09:07:08;;;;;;;13.60;8.18;;;9.90;95.30;;;;;;4999666;28;20085;-72
2021/12/30 09:09:34;;;;;;;15.15;7.03;;;10.00;95.40;;;;;;5000042;28;20077;-73
2021/12/30 09:12:00;;;;;;;15.23;7.32;;;10.00;95.30;;;;;;5001516;28;20108;-73
2021/12/30 09:14:26;;;;;;;8.85;6.43;;;10.00;95.10;;;;;;5009601;28;20250;-73
2021/12/30 09:16:52;;;;;;;13.25;6.60;;;10.00;95.00;;;;;;5006054;28;20533;-73
2021/12/30 09:19:19;;;;;;;12.02;6.32;;;10.10;95.10;;;;;;5006832;28;20125;-73
2021/12/30 09:21:45;;;;;;;16.05;6.93;;;10.10;95.00;;;;;;5006594;28;20125;-73
2021/12/30 09:24:11;;;;;;;16.92;6.97;;;10.10;95.40;;;;;;5011988;28;20057;-72
2021/12/30 09:26:38;;;;;;;20.70;7.65;;;10.10;95.10;;;;;;5009290;28;20467;-73
2021/12/30 09:29:10;;;;;;;11.43;5.95;;;10.10;95.30;;;;;;5006312;28;20045;-73
2021/12/30 09:31:48;;;;;;;11.00;6.05;;;10.20;95.20;;;;;;4991539;28;20040;-67
2021/12/30 09:34:14;;;;;;;13.77;6.07;;;10.20;95.20;;;;;;5003006;28;20034;-68
2021/12/30 09:36:40;;;;;;;16.15;6.55;;;10.20;95.10;;;;;;5006558;28;20025;-68
2021/12/30 09:39:08;;;;;;;11.52;6.13;;;10.30;95.10;;;;;;5006062;28;20026;-71
2021/12/30 09:41:37;;;;;;;13.32;6.35;;;10.20;95.10;;;;;;5005502;28;20034;-73
2021/12/30 09:44:04;;;;;;;9.82;5.57;;;10.30;95.00;;;;;;4994548;28;20037;-72
2021/12/30 09:46:30;;;;;;;12.65;6.38;;;10.30;95.00;;;;;;5005568;28;20034;-72
2021/12/30 09:48:56;;;;;;;16.38;6.72;;;10.40;95.20;;;;;;4992311;28;20038;-71
2021/12/30 09:51:22;;;;;;;9.93;6.03;;;10.40;95.10;;;;;;5005692;28;20394;-71
2021/12/30 09:53:51;;;;;;;12.30;5.97;;;10.40;95.00;;;;;;5005677;28;20030;-69
2021/12/30 09:56:18;;;;;;;15.20;6.10;;;10.40;95.00;;;;;;4989936;28;20046;-71
2021/12/30 09:58:45;;;;;;;10.48;5.20;;;10.50;95.10;;;;;;5001285;28;20098;-71
2021/12/30 10:01:11;;;;;;;20.95;6.55;;;10.40;95.00;;;;;;5004550;28;20347;-71
2021/12/30 10:03:37;;;;;;;24.95;6.15;;;10.50;95.00;;;;;;5003994;28;20040;-70
2021/12/30 10:06:08;;;;;;;15.52;5.93;;;10.50;95.00;;;;;;5004475;28;20132;-71
2021/12/30 10:08:41;;;;;;;11.95;5.05;;;10.50;95.00;;;;;;5003883;28;20560;-69
2021/12/30 10:11:13;;;;;;;17.65;6.05;;;10.50;94.80;;;;;;4999279;28;20133;-68
2021/12/30 10:13:41;;;;;;;18.98;5.68;;;10.60;94.80;;;;;;5000715;28;20030;-68
2021/12/30 10:16:13;;;;;;;14.68;6.00;;;10.50;94.60;;;;;;5002749;28;20065;-68
2021/12/30 10:18:44;;;;;;;17.90;6.18;;;10.60;94.40;;;;;;5003793;28;20520;-68
2021/12/30 10:21:26;;;;;;;13.43;6.13;;;10.50;94.20;;;;;;5003629;28;20109;-67
2021/12/30 10:23:57;;;;;;;12.15;4.88;;;10.50;94.30;;;;;;5000955;28;20034;-68
2021/12/30 10:26:24;;;;;;;15.60;6.78;;;10.50;94.40;;;;;;4998888;28;20062;-68
2021/12/30 10:28:57;;;;;;;22.58;7.30;;;10.50;94.30;;;;;;4986903;28;20034;-72
2021/12/30 10:31:25;;;;;;;12.63;5.85;;;10.60;94.40;;;;;;4988870;28;20084;-72
2021/12/30 10:33:53;;;;;;;20.10;6.50;;;10.60;94.40;;;;;;4982415;28;20049;-71
2021/12/30 10:36:46;;;;;;;12.50;6.28;;;10.60;94.50;;;;;;4988273;28;20295;-71
2021/12/30 10:39:42;;;;;;;17.48;6.25;;;10.60;94.50;;;;;;4995239;28;20164;-72
2021/12/30 10:42:09;;;;;;;15.82;6.25;;;10.70;94.40;;;;;;4984288;28;20037;-71
2021/12/30 10:44:52;;;;;;;12.70;5.70;;;10.70;94.40;;;;;;4998613;28;20026;-71
2021/12/30 10:47:19;;;;;;;17.95;6.78;;;10.80;94.10;;;;;;5005679;28;20104;-72
2021/12/30 10:50:01;;;;;;;13.95;5.53;;;10.80;94.00;;;;;;5002839;28;20037;-72
2021/12/30 10:52:28;;;;;;;15.52;6.13;;;10.70;94.00;;;;;;4984626;28;20606;-72
2021/12/30 10:54:55;;;;;;;12.45;5.60;;;10.70;93.90;;;;;;5000348;28;20084;-69
2021/12/30 10:57:26;;;;;;;15.45;6.97;;;10.70;93.90;;;;;;4997884;28;20037;-68
2021/12/30 10:59:53;;;;;;;19.85;7.20;;;10.80;94.00;;;;;;5003626;28;20056;-68
2021/12/30 11:02:26;;;;;;;19.50;6.72;;;10.80;93.90;;;;;;4986047;28;20034;-68
2021/12/30 11:05:04;;;;;;;13.13;6.82;;;10.80;93.70;;;;;;4975938;28;20141;-68
2021/12/30 11:07:39;;;;;;;18.38;7.57;;;10.80;93.70;;;;;;4979601;28;20034;-66
2021/12/30 11:10:05;;;;;;;20.20;6.80;;;10.90;93.90;;;;;;5002825;28;20040;-67
2021/12/30 11:12:41;;;;;;;13.20;6.63;;;10.80;93.80;;;;;;4995962;28;20046;-71
2021/12/30 11:15:21;;;;;;;14.27;6.43;;;10.80;93.70;;;;;;5005539;28;20030;-71
2021/12/30 11:17:48;;;;;;;14.65;6.78;;;10.90;93.60;;;;;;5003500;28;20030;-73
2021/12/30 11:20:18;;;;;;;13.98;6.90;;;10.90;93.60;;;;;;4990757;28;20549;-71
2021/12/30 11:22:46;;;;;;;15.98;7.05;;;10.90;93.50;;;;;;5004589;28;20025;-68
2021/12/30 11:25:15;;;;;;;15.07;7.28;;;10.90;93.70;;;;;;5000750;28;20038;-69
2021/12/30 11:27:41;;;;;;;18.80;7.78;;;11.00;93.90;;;;;;5004866;28;20029;-71
2021/12/30 11:30:08;;;;;;;22.52;8.05;;;10.90;94.00;;;;;;4985985;28;20040;-70
2021/12/30 11:32:36;;;;;;;23.00;8.55;;;10.90;94.20;;;;;;4984216;28;20586;-71
2021/12/30 11:35:03;;;;;;;21.92;7.65;;;10.90;94.00;;;;;;5001212;28;20116;-71
2021/12/30 11:37:29;;;;;;;16.80;6.72;;;10.90;94.30;;;;;;5003089;28;20030;-67
2021/12/30 11:39:58;;;;;;;20.70;7.32;;;11.00;94.40;;;;;;5004064;28;20022;-67
2021/12/30 11:42:37;;;;;;;17.42;7.57;;;10.90;94.40;;;;;;5002939;28;20155;-71
2021/12/30 11:45:29;;;;;;;15.32;7.47;;;10.90;94.20;;;;;;5003140;28;20042;-70
2021/12/30 11:48:00;;;;;;;19.70;7.43;;;11.00;94.40;;;;;;5003016;28;20040;-75
2021/12/30 11:50:30;;;;;;;17.80;6.97;;;11.00;94.30;;;;;;5005154;28;20038;-72
2021/12/30 11:53:11;;;;;;;16.23;6.85;;;11.00;94.30;;;;;;4987984;28;20034;-69
2021/12/30 11:56:03;;;;;;;14.18;6.43;;;11.00;94.50;;;;;;5001039;28;20164;-69
2021/12/30 11:58:32;;;;;;;15.18;6.50;;;11.00;94.20;;;;;;5005676;28;20064;-69
2021/12/30 12:01:13;;;;;;;14.20;6.57;;;11.00;94.20;;;;;;5002056;28;20034;-72
2021/12/30 12:03:53;;;;;;;10.40;5.72;;;11.00;94.30;;;;;;5003201;28;20037;-69
2021/12/30 12:06:25;;;;;;;21.02;8.73;;;11.00;94.30;;;;;;5001887;28;20044;-69
2021/12/30 12:08:53;;;;;;;21.77;6.57;;;11.00;94.20;;;;;;4986024;28;20040;-70
2021/12/30 12:11:21;;;;;;;16.33;6.22;;;11.00;94.40;;;;;;4998163;28;20053;-67
2021/12/30 12:13:49;;;;;;;13.75;5.88;;;11.00;94.60;;;;;;5005773;28;20076;-67
2021/12/30 12:16:36;;;;;;;14.05;6.35;;;11.00;94.50;;;;;;5004005;28;20030;-67
2021/12/30 12:19:06;;;;;;;16.00;6.60;;;11.00;94.90;;;;;;5001213;28;20109;-68
2021/12/30 12:21:52;;;;;;;13.65;6.05;;;10.90;95.20;;;;;;5002714;28;20492;-68
2021/12/30 12:24:21;;;;;;;13.40;5.90;;;11.00;95.50;;;;;;4982975;28;20031;-68
2021/12/30 12:26:52;;;;;;;15.90;6.00;;;11.00;95.40;;;;;;5001309;28;20435;-68
2021/12/30 12:29:26;;;;;;;13.40;6.57;;;10.90;95.50;;;;;;5003827;28;20116;-70
2021/12/30 12:32:03;;;;;;;16.88;5.80;;;11.00;95.60;;;;;;5002265;28;20026;-71
2021/12/30 12:35:21;;;;;;;15.10;6.32;;;11.00;95.60;;;;;;5002715;28;20036;-70
2021/12/30 12:37:56;;;;;;;12.18;6.07;;;11.10;95.60;;;;;;4982192;28;20405;-68
2021/12/30 12:40:26;;;;;;;15.30;6.25;;;11.00;95.70;;;;;;4999218;28;20045;-70
2021/12/30 12:42:53;;;;;;;17.85;6.38;;;11.10;95.80;;;;;;4999512;28;20048;-69
2021/12/30 12:45:35;;;;;;;18.42;6.38;;;11.00;95.70;;;;;;4998911;28;20037;-68
2021/12/30 12:48:16;;;;;;;13.38;6.20;;;11.10;95.80;;;;;;5001387;28;20164;-68
2021/12/30 12:50:54;;;;;;;13.80;5.68;;;11.10;95.80;;;;;;4997122;28;20037;-67